createdAt,value
2022-10-09T00:01:31.717Z,11.40
2022-10-09T00:04:00.865Z,10.30
2022-10-09T00:06:34.011Z,12.60
2022-10-09T00:09:04.110Z,12.10
2022-10-09T00:11:34.541Z,12.10
2022-10-09T00:14:04.352Z,12.70
2022-10-09T00:16:32.447Z,10.50
2022-10-09T00:19:00.562Z,12.00
2022-10-09T00:21:32.682Z,12.10
2022-10-09T00:24:02.670Z,12.10
2022-10-09T00:26:32.043Z,10.70
2022-10-09T00:29:00.080Z,11.60
2022-10-09T00:31:28.039Z,12.70
2022-10-09T00:33:56.077Z,12.10
2022-10-09T00:36:26.289Z,11.30
2022-10-09T00:38:55.515Z,11.60
2022-10-09T00:41:28.598Z,11.10
2022-10-09T00:44:03.465Z,10.20
2022-10-09T00:46:48.125Z,11.00
2022-10-09T00:49:32.171Z,10.80
2022-10-09T00:52:05.796Z,10.30
2022-10-09T00:54:38.470Z,9.80
2022-10-09T00:57:07.785Z,9.40
2022-10-09T00:59:36.698Z,9.70
2022-10-09T01:02:04.614Z,9.80
2022-10-09T01:04:32.817Z,10.20
2022-10-09T01:07:15.487Z,9.90
2022-10-09T01:10:04.597Z,10.10
2022-10-09T01:13:09.522Z,9.90
2022-10-09T01:15:53.437Z,10.10
2022-10-09T01:18:58.198Z,9.90
2022-10-09T01:21:35.440Z,9.30
2022-10-09T01:24:37.353Z,9.80
2022-10-09T01:29:57.158Z,9.70
2022-10-09T01:32:32.848Z,9.40
2022-10-09T01:35:02.304Z,9.10
2022-10-09T01:37:32.048Z,8.50
2022-10-09T01:40:01.623Z,9.50
2022-10-09T01:42:31.570Z,8.50
2022-10-09T01:44:59.475Z,8.20
2022-10-09T01:47:27.636Z,8.60
2022-10-09T01:50:12.854Z,7.70
2022-10-09T01:52:50.041Z,8.80
2022-10-09T01:55:41.792Z,8.30
2022-10-09T01:58:37.500Z,8.20
2022-10-09T02:01:13.642Z,8.40
2022-10-09T02:03:46.360Z,8.60
2022-10-09T02:06:17.831Z,8.00
2022-10-09T02:08:53.660Z,8.20
2022-10-09T02:11:27.637Z,8.70
2022-10-09T02:13:56.328Z,8.30
2022-10-09T02:16:45.466Z,8.90
2022-10-09T02:19:18.961Z,8.50
2022-10-09T02:22:01.134Z,8.30
2022-10-09T02:24:30.056Z,8.40
2022-10-09T02:26:59.410Z,7.30
2022-10-09T02:29:27.507Z,8.20
2022-10-09T02:31:55.482Z,8.00
2022-10-09T02:34:23.383Z,7.50
2022-10-09T02:36:51.660Z,8.40
2022-10-09T02:39:19.498Z,8.00
2022-10-09T02:41:47.316Z,8.00
2022-10-09T02:44:15.171Z,7.80
2022-10-09T02:46:43.190Z,8.70
2022-10-09T02:49:11.560Z,8.90
2022-10-09T02:51:39.399Z,8.70
2022-10-09T02:54:07.666Z,7.80
2022-10-09T02:56:38.782Z,8.10
2022-10-09T03:01:35.625Z,8.60
2022-10-09T03:04:05.095Z,7.50
2022-10-09T03:06:33.202Z,8.50
2022-10-09T03:09:01.421Z,7.80
2022-10-09T03:11:29.459Z,7.60
2022-10-09T03:13:57.515Z,7.70
2022-10-09T03:16:26.942Z,7.80
2022-10-09T03:18:55.345Z,7.20
2022-10-09T03:21:26.737Z,7.30
2022-10-09T03:26:27.623Z,7.50
2022-10-09T03:28:56.205Z,7.80
2022-10-09T03:31:50.539Z,7.60
2022-10-09T03:34:14.861Z,7.90
2022-10-09T03:36:42.679Z,7.30
2022-10-09T03:39:10.692Z,6.90
2022-10-09T03:41:38.495Z,7.60
2022-10-09T03:44:06.493Z,7.60
2022-10-09T03:46:34.393Z,7.30
2022-10-09T03:49:02.279Z,7.20
2022-10-09T03:51:30.097Z,7.00
2022-10-09T03:53:58.439Z,7.20
2022-10-09T03:56:26.335Z,7.20
2022-10-09T03:58:54.307Z,6.90
2022-10-09T04:01:22.513Z,6.90
2022-10-09T04:03:50.483Z,6.90
2022-10-09T04:06:18.466Z,7.00
2022-10-09T04:08:46.336Z,7.00
2022-10-09T04:11:14.200Z,7.90
2022-10-09T04:13:42.020Z,7.20
2022-10-09T04:16:12.964Z,6.60
2022-10-09T04:18:42.895Z,6.70
2022-10-09T04:21:12.916Z,6.90
2022-10-09T04:23:40.927Z,7.90
2022-10-09T04:26:12.412Z,7.30
2022-10-09T04:31:08.433Z,7.60
2022-10-09T04:33:36.635Z,6.90
2022-10-09T04:36:04.831Z,6.70
2022-10-09T04:38:32.806Z,6.40
2022-10-09T04:41:05.400Z,7.80
2022-10-09T04:43:35.066Z,6.60
2022-10-09T04:46:13.301Z,6.70
2022-10-09T04:48:44.983Z,6.70
2022-10-09T04:53:42.627Z,6.50
2022-10-09T04:56:15.664Z,6.40
2022-10-09T04:58:44.645Z,6.40
2022-10-09T05:01:21.471Z,6.10
2022-10-09T05:03:50.233Z,6.00
2022-10-09T05:06:21.467Z,6.00
2022-10-09T05:08:50.273Z,5.80
2022-10-09T05:11:25.595Z,5.80
2022-10-09T05:13:56.092Z,6.30
2022-10-09T05:16:28.497Z,6.00
2022-10-09T05:19:00.158Z,5.80
2022-10-09T05:23:57.868Z,5.80
2022-10-09T05:26:27.428Z,5.30
2022-10-09T05:28:55.353Z,5.70
2022-10-09T05:31:27.925Z,5.70
2022-10-09T05:33:59.445Z,5.00
2022-10-09T05:38:57.748Z,5.40
2022-10-09T05:41:25.608Z,5.70
2022-10-09T05:43:53.453Z,5.30
2022-10-09T05:46:24.854Z,5.30
2022-10-09T05:51:27.921Z,4.50
2022-10-09T05:53:56.958Z,5.90
2022-10-09T05:56:28.959Z,5.00
2022-10-09T05:59:01.227Z,4.80
2022-10-09T06:01:34.337Z,4.70
2022-10-09T06:04:03.799Z,4.40
2022-10-09T06:06:36.621Z,4.40
2022-10-09T06:09:06.517Z,4.60
2022-10-09T06:11:38.372Z,4.30
2022-10-09T06:14:10.256Z,4.60
2022-10-09T06:16:41.484Z,4.20
2022-10-09T06:19:13.999Z,4.10
2022-10-09T06:21:43.521Z,4.90
2022-10-09T06:29:27.263Z,4.40
2022-10-09T06:31:55.135Z,4.20
2022-10-09T06:34:24.051Z,4.60
2022-10-09T06:36:51.988Z,3.90
2022-10-09T06:39:20.070Z,4.40
2022-10-09T06:41:48.555Z,4.40
2022-10-09T06:44:31.092Z,4.40
2022-10-09T06:46:59.026Z,4.20
2022-10-09T06:49:27.230Z,4.10
2022-10-09T06:51:55.107Z,4.30
2022-10-09T06:54:23.152Z,4.30
2022-10-09T06:56:50.999Z,4.90
2022-10-09T06:59:18.831Z,4.80
2022-10-09T07:01:46.725Z,4.70
2022-10-09T07:04:15.106Z,5.00
2022-10-09T07:06:47.804Z,4.60
2022-10-09T07:09:16.691Z,4.70
2022-10-09T07:11:49.160Z,4.80
2022-10-09T07:14:18.206Z,5.10
2022-10-09T07:16:48.915Z,5.40
2022-10-09T07:19:18.885Z,4.50
2022-10-09T07:21:50.167Z,4.60
2022-10-09T07:24:20.440Z,4.40
2022-10-09T07:26:49.156Z,3.80
2022-10-09T07:29:19.400Z,4.60
2022-10-09T07:31:47.917Z,4.10
2022-10-09T07:34:16.372Z,4.20
2022-10-09T07:36:44.284Z,4.60
2022-10-09T07:39:12.196Z,4.30
2022-10-09T07:41:40.128Z,4.40
2022-10-09T07:44:08.048Z,4.90
2022-10-09T07:46:36.068Z,5.10
2022-10-09T07:49:04.804Z,5.00
2022-10-09T07:51:33.154Z,4.60
2022-10-09T07:54:02.335Z,4.70
2022-10-09T07:56:36.326Z,4.90
2022-10-09T07:59:08.335Z,4.20
2022-10-09T08:01:36.654Z,3.90
2022-10-09T08:04:05.705Z,4.00
2022-10-09T08:06:35.012Z,3.80
2022-10-09T08:09:06.199Z,3.60
2022-10-09T08:11:35.308Z,4.10
2022-10-09T08:14:03.244Z,3.50
2022-10-09T08:16:32.544Z,4.10
2022-10-09T08:19:02.231Z,4.00
2022-10-09T08:21:32.945Z,4.00
2022-10-09T08:24:01.102Z,3.90
2022-10-09T08:26:30.978Z,3.80
2022-10-09T08:29:04.047Z,4.20
2022-10-09T08:31:33.738Z,4.50
2022-10-09T08:34:03.453Z,4.70
2022-10-09T08:36:32.505Z,4.70
2022-10-09T08:39:00.701Z,5.20
2022-10-09T08:41:50.057Z,5.80
2022-10-09T08:44:24.160Z,5.40
2022-10-09T08:47:01.222Z,5.10
2022-10-09T08:49:46.148Z,5.10
2022-10-09T08:52:51.697Z,4.30
2022-10-09T08:55:33.013Z,4.20
2022-10-09T08:58:04.978Z,4.20
2022-10-09T09:01:17.457Z,3.70
2022-10-09T09:03:55.816Z,4.10
2022-10-09T09:06:34.808Z,4.10
2022-10-09T09:09:38.330Z,3.60
2022-10-09T09:12:36.597Z,3.90
2022-10-09T09:15:21.849Z,4.00
2022-10-09T09:18:02.065Z,4.00
2022-10-09T09:21:16.629Z,4.10
2022-10-09T09:23:48.479Z,3.30
2022-10-09T09:26:22.100Z,4.80
2022-10-09T09:28:58.427Z,3.90
2022-10-09T09:31:36.160Z,3.30
2022-10-09T09:34:18.880Z,3.70
2022-10-09T09:36:56.779Z,3.50
2022-10-09T09:40:42.238Z,3.50
2022-10-09T09:42:20.966Z,3.20
2022-10-09T09:45:04.307Z,3.20
2022-10-09T09:47:45.375Z,2.80
2022-10-09T09:50:34.991Z,2.90
2022-10-09T09:53:15.715Z,2.60
2022-10-09T09:55:43.702Z,2.10
2022-10-09T09:58:18.130Z,2.20
2022-10-09T10:00:57.335Z,2.40
2022-10-09T10:03:25.747Z,2.50
2022-10-09T10:05:54.433Z,2.80
2022-10-09T10:08:32.171Z,2.00
2022-10-09T10:11:07.046Z,1.70
2022-10-09T10:13:39.623Z,2.40
2022-10-09T10:16:08.836Z,1.70
2022-10-09T10:18:43.550Z,1.90
2022-10-09T10:21:19.929Z,3.00
2022-10-09T10:23:56.028Z,1.90
2022-10-09T10:26:55.876Z,2.00
2022-10-09T10:29:59.986Z,2.10
2022-10-09T10:32:36.190Z,1.70
2022-10-09T10:35:24.713Z,2.10
2022-10-09T10:38:05.566Z,1.90
2022-10-09T10:40:44.025Z,1.90
2022-10-09T10:43:35.202Z,2.00
2022-10-09T10:46:17.394Z,2.00
2022-10-09T10:48:47.743Z,1.80
2022-10-09T10:51:43.075Z,1.90
2022-10-09T10:54:36.434Z,2.30
2022-10-09T10:57:10.408Z,2.10
2022-10-09T10:59:50.981Z,1.80
2022-10-09T11:02:41.059Z,2.40
2022-10-09T11:05:45.832Z,2.00
2022-10-09T11:08:35.952Z,2.50
2022-10-09T11:11:39.380Z,2.00
2022-10-09T11:14:37.525Z,2.00
2022-10-09T11:17:26.580Z,2.00
2022-10-09T11:20:16.019Z,2.30
2022-10-09T11:23:08.697Z,2.10
2022-10-09T11:25:59.798Z,1.70
2022-10-09T11:28:39.852Z,2.30
2022-10-09T11:31:20.968Z,1.80
2022-10-09T11:33:54.321Z,1.80
2022-10-09T11:36:33.113Z,2.00
2022-10-09T11:39:06.449Z,1.90
2022-10-09T11:41:36.849Z,1.90
2022-10-09T11:44:39.641Z,2.20
2022-10-09T11:47:43.871Z,1.70
2022-10-09T11:50:51.801Z,1.80
2022-10-09T11:53:25.069Z,1.80
2022-10-09T11:56:18.852Z,1.90
2022-10-09T11:59:07.778Z,1.90
2022-10-09T12:01:43.007Z,1.90
2022-10-09T12:04:13.854Z,1.90
2022-10-09T12:06:56.759Z,2.20
2022-10-09T12:09:30.511Z,1.60
2022-10-09T12:12:16.619Z,1.80
2022-10-09T12:14:50.319Z,2.10
2022-10-09T12:17:18.180Z,1.70
2022-10-09T12:19:46.389Z,1.90
2022-10-09T12:22:20.604Z,1.70
2022-10-09T12:24:53.777Z,1.70
2022-10-09T12:27:26.967Z,2.10
2022-10-09T12:30:03.641Z,2.00
2022-10-09T12:32:53.447Z,2.00
2022-10-09T12:35:41.778Z,1.80
2022-10-09T12:38:26.550Z,2.90
2022-10-09T12:41:00.806Z,2.80
2022-10-09T12:43:31.389Z,1.90
2022-10-09T12:46:01.174Z,2.00
2022-10-09T12:48:37.879Z,2.00
2022-10-09T12:51:16.927Z,1.60
2022-10-09T12:53:50.925Z,1.70
2022-10-09T12:56:39.667Z,1.60
2022-10-09T12:59:12.755Z,2.10
2022-10-09T13:01:44.772Z,1.70
2022-10-09T13:04:32.775Z,2.10
2022-10-09T13:07:15.855Z,2.20
2022-10-09T13:09:43.768Z,1.90
2022-10-09T13:12:24.641Z,2.20
2022-10-09T13:14:55.474Z,2.30
2022-10-09T13:17:33.066Z,2.20
2022-10-09T13:20:20.519Z,1.50
2022-10-09T13:22:55.269Z,1.80
2022-10-09T13:25:27.497Z,1.60
2022-10-09T13:27:56.411Z,2.00
2022-10-09T13:30:24.539Z,1.90
2022-10-09T13:32:52.487Z,1.60
2022-10-09T13:35:20.419Z,2.00
2022-10-09T13:37:48.904Z,1.90
2022-10-09T13:40:20.791Z,2.10
2022-10-09T13:43:01.762Z,1.70
2022-10-09T13:45:29.607Z,1.40
2022-10-09T13:47:57.468Z,2.00
2022-10-09T13:50:26.304Z,1.70
2022-10-09T13:52:54.199Z,1.70
2022-10-09T13:55:22.053Z,1.60
2022-10-09T13:57:50.080Z,1.40
2022-10-09T14:00:18.775Z,1.90
2022-10-09T14:02:46.808Z,2.10
2022-10-09T14:05:14.756Z,1.80
2022-10-09T14:07:42.667Z,2.00
2022-10-09T14:10:10.996Z,2.50
2022-10-09T14:12:39.060Z,1.40
2022-10-09T14:15:07.609Z,2.70
2022-10-09T14:17:35.532Z,2.10
2022-10-09T14:20:03.788Z,1.80
2022-10-09T14:22:31.760Z,1.50
2022-10-09T14:24:59.607Z,2.60
2022-10-09T14:27:27.612Z,3.70
2022-10-09T14:29:57.289Z,2.80
2022-10-09T14:32:26.803Z,2.20
2022-10-09T14:34:54.930Z,1.70
2022-10-09T14:37:40.457Z,1.70
2022-10-09T14:40:11.694Z,1.70
2022-10-09T14:42:40.146Z,1.60
2022-10-09T14:45:09.515Z,1.50
2022-10-09T14:47:37.407Z,1.60
2022-10-09T14:50:05.739Z,1.50
2022-10-09T14:52:33.799Z,1.60
2022-10-09T14:55:01.831Z,3.20
2022-10-09T14:57:34.370Z,3.10
2022-10-09T15:00:05.383Z,2.50
2022-10-09T15:02:33.514Z,2.90
2022-10-09T15:05:01.527Z,2.90
2022-10-09T15:07:29.599Z,2.70
2022-10-09T15:09:57.992Z,3.90
2022-10-09T15:12:25.975Z,5.60
2022-10-09T15:14:54.494Z,3.90
2022-10-09T15:17:22.626Z,3.20
2022-10-09T15:19:50.533Z,3.00
2022-10-09T15:22:18.330Z,2.60
2022-10-09T15:24:47.918Z,1.90
2022-10-09T15:27:15.717Z,2.10
2022-10-09T15:29:43.592Z,1.60
2022-10-09T15:32:11.446Z,1.50
2022-10-09T15:34:41.152Z,1.50
2022-10-09T15:37:09.277Z,1.70
2022-10-09T15:39:38.194Z,1.90
2022-10-09T15:42:06.537Z,1.80
2022-10-09T15:44:34.354Z,2.30
2022-10-09T15:47:02.191Z,1.40
2022-10-09T15:49:30.057Z,1.50
2022-10-09T15:51:58.280Z,1.60
2022-10-09T15:54:26.299Z,1.70
2022-10-09T15:56:54.803Z,1.30
2022-10-09T15:59:22.754Z,1.10
2022-10-09T16:01:51.076Z,1.50
2022-10-09T16:04:18.972Z,1.40
2022-10-09T16:06:46.866Z,1.50
2022-10-09T16:09:14.843Z,1.70
2022-10-09T16:11:42.714Z,1.70
2022-10-09T16:14:10.598Z,1.90
2022-10-09T16:16:38.447Z,1.20
2022-10-09T16:19:06.882Z,1.30
2022-10-09T16:21:34.714Z,1.30
2022-10-09T16:24:02.660Z,1.60
2022-10-09T16:26:30.809Z,1.50
2022-10-09T16:29:00.778Z,3.70
2022-10-09T16:31:36.247Z,3.50
2022-10-09T16:34:06.773Z,3.00
2022-10-09T16:36:35.070Z,2.00
2022-10-09T16:39:03.328Z,1.80
2022-10-09T16:41:31.252Z,1.80
2022-10-09T16:44:00.312Z,1.70
2022-10-09T16:49:05.179Z,2.00
2022-10-09T16:51:36.487Z,2.20
2022-10-09T16:54:06.412Z,2.00
2022-10-09T16:56:38.527Z,2.90
2022-10-09T16:59:12.027Z,2.70
2022-10-09T17:01:45.042Z,2.20
2022-10-09T17:04:14.492Z,2.10
2022-10-09T17:06:44.166Z,1.40
2022-10-09T17:09:14.335Z,2.00
2022-10-09T17:11:43.444Z,1.80
2022-10-09T17:14:12.723Z,1.30
2022-10-09T17:16:42.797Z,1.70
2022-10-09T17:19:11.111Z,1.80
2022-10-09T17:21:39.297Z,1.80
2022-10-09T17:24:08.740Z,1.80
2022-10-09T17:26:36.662Z,2.00
2022-10-09T17:29:05.394Z,2.00
2022-10-09T17:31:34.640Z,1.60
2022-10-09T17:34:04.452Z,1.90
2022-10-09T17:36:36.959Z,2.30
2022-10-09T17:39:10.940Z,1.50
2022-10-09T17:41:39.228Z,1.80
2022-10-09T17:44:07.385Z,2.00
2022-10-09T17:46:35.524Z,1.90
2022-10-09T17:49:04.236Z,2.90
2022-10-09T17:51:36.926Z,3.10
2022-10-09T17:54:11.738Z,2.10
2022-10-09T17:56:41.451Z,4.20
2022-10-09T17:59:09.886Z,2.50
2022-10-09T18:01:37.844Z,2.70
2022-10-09T18:04:05.742Z,3.00
2022-10-09T18:06:35.361Z,4.50
2022-10-09T18:09:04.558Z,2.80
2022-10-09T18:11:32.639Z,2.50
2022-10-09T18:14:01.898Z,2.80
2022-10-09T18:16:36.261Z,3.20
2022-10-09T18:19:11.531Z,3.60
2022-10-09T18:21:43.862Z,4.60
2022-10-09T18:24:13.596Z,5.90
2022-10-09T18:26:42.826Z,7.30
2022-10-09T18:29:11.043Z,9.10
2022-10-09T18:31:39.191Z,8.90
2022-10-09T18:34:07.228Z,7.80
2022-10-09T18:36:36.007Z,7.50
2022-10-09T18:39:12.005Z,8.40
2022-10-09T18:41:40.468Z,9.40
2022-10-09T18:44:17.246Z,10.00
2022-10-09T18:46:56.879Z,8.90
2022-10-09T18:49:30.234Z,8.40
2022-10-09T18:52:01.767Z,8.60
2022-10-09T18:54:31.063Z,8.40
2022-10-09T18:56:59.052Z,7.50
2022-10-09T18:59:27.037Z,6.00
2022-10-09T19:01:55.139Z,5.20
2022-10-09T19:04:23.047Z,5.70
2022-10-09T19:06:52.197Z,5.30
2022-10-09T19:09:20.809Z,5.10
2022-10-09T19:11:48.650Z,5.70
2022-10-09T19:14:16.711Z,5.40
2022-10-09T19:16:44.855Z,4.60
2022-10-09T19:19:13.550Z,4.30
2022-10-09T19:21:44.300Z,3.50
2022-10-09T19:24:13.812Z,3.00
2022-10-09T19:26:41.935Z,2.50
2022-10-09T19:29:10.091Z,2.70
2022-10-09T19:31:38.063Z,2.50
2022-10-09T19:34:06.696Z,2.50
2022-10-09T19:36:36.804Z,2.30
2022-10-09T19:39:08.031Z,2.40
2022-10-09T19:41:37.942Z,2.60
2022-10-09T19:44:05.781Z,2.90
2022-10-09T19:46:37.331Z,2.60
2022-10-09T19:49:06.896Z,2.50
2022-10-09T19:51:36.526Z,2.70
2022-10-09T19:54:07.769Z,2.40
2022-10-09T19:56:38.011Z,2.70
2022-10-09T19:59:09.088Z,2.60
2022-10-09T20:01:40.251Z,3.10
2022-10-09T20:04:10.818Z,6.40
2022-10-09T20:06:42.289Z,4.40
2022-10-09T20:09:12.295Z,4.20
2022-10-09T20:11:40.284Z,4.70
2022-10-09T20:14:09.802Z,4.20
2022-10-09T20:16:38.373Z,4.80
2022-10-09T20:19:06.714Z,7.40
2022-10-09T20:21:35.383Z,6.60
2022-10-09T20:24:03.707Z,4.60
2022-10-09T20:26:33.245Z,5.40
2022-10-09T20:29:01.197Z,4.80
2022-10-09T20:31:30.295Z,4.40
2022-10-09T20:33:58.974Z,4.80
2022-10-09T20:36:31.929Z,5.90
2022-10-09T20:39:07.376Z,5.80
2022-10-09T20:41:35.670Z,6.00
2022-10-09T20:44:04.770Z,6.50
2022-10-09T20:46:36.990Z,6.20
2022-10-09T20:49:08.461Z,5.80
2022-10-09T20:54:07.899Z,4.80
2022-10-09T20:56:36.715Z,4.70
2022-10-09T20:59:04.636Z,4.70
2022-10-09T21:01:32.595Z,6.60
2022-10-09T21:04:01.147Z,7.70
2022-10-09T21:06:30.246Z,11.30
2022-10-09T21:08:58.875Z,18.00
2022-10-09T21:11:26.825Z,12.60
2022-10-09T21:13:54.828Z,12.70
2022-10-09T21:16:25.426Z,12.60
2022-10-09T21:19:00.552Z,8.30
2022-10-09T21:21:30.268Z,8.40
2022-10-09T21:24:01.223Z,7.90
2022-10-09T21:26:36.389Z,7.50
2022-10-09T21:29:05.873Z,7.70
2022-10-09T21:31:34.724Z,6.90
2022-10-09T21:34:02.992Z,6.40
2022-10-09T21:37:08.540Z,5.40
2022-10-09T21:39:32.079Z,4.70
2022-10-09T21:42:00.263Z,4.10
2022-10-09T21:44:28.368Z,4.20
2022-10-09T21:46:56.857Z,4.50
2022-10-09T21:49:28.267Z,3.80
2022-10-09T21:54:24.820Z,4.50
2022-10-09T21:56:52.769Z,4.80
2022-10-09T21:59:20.576Z,4.60
2022-10-09T22:01:48.499Z,4.60
2022-10-09T22:04:16.413Z,4.70
2022-10-09T22:06:44.358Z,5.10
2022-10-09T22:09:12.984Z,5.00
2022-10-09T22:11:41.185Z,5.20
2022-10-09T22:14:09.035Z,4.50
2022-10-09T22:16:37.204Z,5.10
2022-10-09T22:19:05.112Z,5.10
2022-10-09T22:21:33.345Z,4.70
2022-10-09T22:24:01.480Z,5.40
2022-10-09T22:26:29.487Z,5.50
2022-10-09T22:28:57.701Z,7.50
2022-10-09T22:31:27.502Z,5.90
2022-10-09T22:34:01.489Z,5.70
2022-10-09T22:36:32.999Z,5.60
2022-10-09T22:39:06.426Z,5.90
2022-10-09T22:41:36.083Z,5.90
2022-10-09T22:44:08.090Z,6.40
2022-10-09T22:46:40.895Z,6.20
2022-10-09T22:49:14.394Z,6.50
2022-10-09T22:51:43.584Z,6.40
2022-10-09T22:54:12.892Z,6.40
2022-10-09T22:56:44.579Z,6.10
2022-10-09T22:59:16.641Z,6.20
2022-10-09T23:01:48.719Z,6.10
2022-10-09T23:04:19.067Z,6.10
2022-10-09T23:06:52.369Z,6.00
2022-10-09T23:09:21.996Z,7.10
2022-10-09T23:11:50.584Z,6.40
2022-10-09T23:14:18.798Z,6.30
2022-10-09T23:16:46.699Z,6.10
2022-10-09T23:19:15.466Z,5.80
2022-10-09T23:21:45.648Z,7.20
2022-10-09T23:24:17.513Z,6.10
2022-10-09T23:26:49.710Z,7.20
2022-10-09T23:29:20.291Z,6.40
2022-10-09T23:31:52.956Z,6.30
2022-10-09T23:34:20.880Z,6.60
2022-10-09T23:36:48.716Z,7.30
2022-10-09T23:39:16.897Z,6.50
2022-10-09T23:41:44.791Z,6.40
2022-10-09T23:44:12.635Z,6.20
2022-10-09T23:46:40.468Z,6.30
2022-10-09T23:49:08.340Z,6.90
2022-10-09T23:51:36.274Z,6.90
2022-10-09T23:54:04.564Z,6.40
2022-10-09T23:56:35.741Z,7.00
2022-10-09T23:59:06.698Z,6.70
